Time;durP1;ratioP1;P1;durP2;ratioP2;P2;SDS_P1;SDS_P2;PMS_P1;PMS_P2;Temp;Humidity;BMP_temperature;BMP_pressure;BME280_temperature;BME280_humidity;BME280_pressure;Samples;Min_cycle;Max_cycle;Signal;HPM_P1;HPM_P2
2021/05/30 00:01:43;;;;;;;5.00;2.03;;;;;;;12.80;77.68;101105.99;647863;221;25002;-74
2021/05/30 00:04:11;;;;;;;3.23;2.70;;;;;;;12.77;77.32;101113.62;638452;223;24930;-74
2021/05/30 00:06:39;;;;;;;2.90;2.60;;;;;;;12.77;77.68;101105.79;642819;221;24974;-74
2021/05/30 00:09:07;;;;;;;4.00;2.40;;;;;;;12.80;76.56;101104.69;625226;223;32818;-74
2021/05/30 00:11:35;;;;;;;2.30;2.10;;;;;;;12.73;76.01;101097.90;640889;220;24914;-73
2021/05/30 00:14:03;;;;;;;2.63;2.20;;;;;;;12.72;76.49;101103.26;637839;221;25046;-74
2021/05/30 00:16:31;;;;;;;2.60;2.40;;;;;;;12.70;76.72;101097.36;640409;220;24882;-74
2021/05/30 00:18:59;;;;;;;2.63;2.43;;;;;;;12.64;76.44;101100.02;642530;221;24929;-74
2021/05/30 00:21:27;;;;;;;2.40;1.97;;;;;;;12.70;76.15;101101.27;648335;221;24863;-74
2021/05/30 00:23:57;;;;;;;2.30;2.10;;;;;;;12.64;75.85;101096.58;643022;221;24879;-74
2021/05/30 00:26:24;;;;;;;3.80;2.27;;;;;;;12.54;77.33;101104.42;638546;222;24912;-74
2021/05/30 00:28:52;;;;;;;4.27;2.30;;;;;;;12.45;76.53;101102.13;644341;220;24867;-74
2021/05/30 00:31:20;;;;;;;4.93;2.60;;;;;;;12.44;77.29;101104.40;644781;221;23955;-74
2021/05/30 00:33:49;;;;;;;4.47;2.75;;;;;;;12.45;76.68;101106.53;639568;221;32665;-74
2021/05/30 00:36:16;;;;;;;3.57;3.20;;;;;;;12.37;77.00;101109.80;641947;221;23732;-74
2021/05/30 00:38:44;;;;;;;3.25;2.65;;;;;;;12.43;77.16;101101.45;633736;221;43387;-74
2021/05/30 00:41:12;;;;;;;4.23;2.90;;;;;;;12.34;77.25;101100.94;640733;222;27070;-74
2021/05/30 00:43:44;;;;;;;2.77;2.53;;;;;;;12.32;76.89;101103.34;639680;221;24871;-74
2021/05/30 00:46:12;;;;;;;2.50;2.30;;;;;;;12.24;77.25;101102.70;643291;222;24899;-74
2021/05/30 00:48:40;;;;;;;2.70;2.43;;;;;;;12.18;77.88;101104.06;640361;221;24870;-74
2021/05/30 00:51:08;;;;;;;3.10;2.80;;;;;;;12.24;78.19;101115.73;643837;221;27050;-73
2021/05/30 00:53:36;;;;;;;6.90;2.90;;;;;;;12.13;78.06;101120.61;646492;221;24957;-73
2021/05/30 00:56:05;;;;;;;4.70;3.00;;;;;;;12.13;79.14;101128.91;640841;221;25034;-74
2021/05/30 00:58:33;;;;;;;4.00;3.03;;;;;;;12.11;78.94;101122.52;647275;221;24431;-74
2021/05/30 01:01:01;;;;;;;2.83;2.63;;;;;;;12.01;78.68;101129.95;639605;222;24856;-74
2021/05/30 01:03:29;;;;;;;2.70;2.50;;;;;;;12.05;79.56;101130.03;645040;221;24861;-74
2021/05/30 01:05:57;;;;;;;6.40;3.10;;;;;;;11.99;79.52;101135.31;640638;222;23882;-74
2021/05/30 01:08:27;;;;;;;3.93;3.20;;;;;;;11.92;80.30;101135.95;642863;221;24836;-74
2021/05/30 01:10:54;;;;;;;4.97;3.80;;;;;;;11.92;79.47;101133.34;626461;226;24937;-74
2021/05/30 01:13:22;;;;;;;5.50;3.37;;;;;;;11.82;80.43;101127.63;645374;221;24907;-74
2021/05/30 01:15:50;;;;;;;5.23;3.60;;;;;;;11.82;80.18;101129.38;644924;221;24874;-74
2021/05/30 01:18:18;;;;;;;3.47;3.10;;;;;;;11.75;80.73;101131.66;635112;225;23941;-73
2021/05/30 01:20:46;;;;;;;3.93;3.57;;;;;;;11.71;81.11;101134.19;646525;219;24121;-74
2021/05/30 01:23:14;;;;;;;4.50;3.40;;;;;;;11.83;81.63;101137.58;627644;225;32883;-74
2021/05/30 01:25:42;;;;;;;4.70;3.70;;;;;;;11.66;81.24;101138.95;639376;222;24913;-74
2021/05/30 01:28:10;;;;;;;5.57;3.60;;;;;;;11.58;81.46;101143.99;635111;224;24925;-73
2021/05/30 01:30:38;;;;;;;4.33;3.93;;;;;;;11.67;80.84;101137.16;636599;220;32882;-74
2021/05/30 01:33:06;;;;;;;4.43;4.03;;;;;;;11.73;81.21;101141.40;633499;221;32767;-74
2021/05/30 01:35:34;;;;;;;6.00;4.40;;;;;;;11.42;82.56;101146.23;626764;225;24931;-74
2021/05/30 01:38:02;;;;;;;5.00;3.90;;;;;;;11.53;81.71;101144.36;626237;225;32901;-74
2021/05/30 01:40:30;;;;;;;4.95;4.15;;;;;;;11.58;82.51;101147.42;645139;221;32701;-74
2021/05/30 01:42:58;;;;;;;4.87;4.37;;;;;;;11.44;83.00;101150.83;648303;221;23766;-74
2021/05/30 01:45:28;;;;;;;4.23;3.83;;;;;;;11.30;84.09;101148.89;638039;223;24893;-74
2021/05/30 01:47:55;;;;;;;6.22;4.50;;;;;;;11.47;82.67;101149.27;646168;220;32687;-74
2021/05/30 01:50:23;;;;;;;5.60;4.80;;;;;;;11.21;84.82;101148.81;645564;221;23777;-74
2021/05/30 01:52:51;;;;;;;5.90;4.53;;;;;;;11.16;85.01;101150.50;627303;225;24940;-74
2021/05/30 01:55:22;;;;;;;4.90;4.40;;;;;;;11.16;85.41;101151.80;622969;225;32815;-75
2021/05/30 01:57:47;;;;;;;6.90;5.03;;;;;;;10.93;85.79;101150.23;630123;226;24914;-74
2021/05/30 02:00:15;;;;;;;6.53;4.33;;;;;;;10.96;86.37;101152.59;628957;225;24283;-74
2021/05/30 02:02:44;;;;;;;6.70;5.20;;;;;;;11.02;85.46;101153.41;645568;221;24890;-74
2021/05/30 02:05:12;;;;;;;8.15;5.00;;;;;;;11.13;85.93;101146.86;637939;221;43358;-74
2021/05/30 02:07:40;;;;;;;5.10;4.20;;;;;;;10.93;86.37;101148.94;631743;224;23774;-74
2021/05/30 02:10:09;;;;;;;6.00;4.93;;;;;;;10.92;85.95;101152.48;650461;221;28075;-74
2021/05/30 02:12:37;;;;;;;8.80;5.07;;;;;;;10.84;86.62;101154.43;628114;225;27100;-74
2021/05/30 02:15:06;;;;;;;8.83;4.93;;;;;;;10.86;86.87;101155.13;628164;225;25154;-74
2021/05/30 02:17:34;;;;;;;7.67;5.80;;;;;;;10.95;86.80;101157.44;635423;221;32820;-74
2021/05/30 02:20:02;;;;;;;10.20;6.37;;;;;;;10.82;86.87;101160.68;645565;221;23820;-75
2021/05/30 02:22:31;;;;;;;9.03;5.40;;;;;;;10.77;87.42;101164.96;627638;225;24972;-74
2021/05/30 02:24:58;;;;;;;8.63;5.87;;;;;;;10.74;87.50;101160.48;626955;226;25350;-73
2021/05/30 02:27:26;;;;;;;7.20;5.70;;;;;;;10.53;89.37;101163.83;650232;221;24857;-74
2021/05/30 02:29:54;;;;;;;6.77;5.90;;;;;;;10.33;90.08;101167.18;638547;221;25115;-74
2021/05/30 02:32:22;;;;;;;6.43;4.90;;;;;;;10.24;90.65;101164.81;632983;224;26139;-74
2021/05/30 02:34:50;;;;;;;6.90;5.90;;;;;;;10.42;90.26;101170.84;644007;220;32717;-74
2021/05/30 02:37:18;;;;;;;8.90;6.63;;;;;;;10.31;91.34;101161.28;646757;220;28093;-74
2021/05/30 02:39:46;;;;;;;11.10;6.07;;;;;;;10.30;90.98;101167.42;639819;220;24868;-74
2021/05/30 02:42:14;;;;;;;7.33;6.23;;;;;;;10.42;90.79;101162.58;636125;224;43503;-74
2021/05/30 02:44:42;;;;;;;10.70;7.00;;;;;;;10.36;90.82;101158.66;629031;224;24921;-74
2021/05/30 02:47:10;;;;;;;6.47;5.63;;;;;;;10.32;91.32;101161.16;644931;220;24922;-73
2021/05/30 02:49:38;;;;;;;9.80;6.80;;;;;;;10.37;91.34;101165.52;641474;220;24974;-73
2021/05/30 02:52:06;;;;;;;11.13;7.60;;;;;;;10.37;91.66;101165.52;640583;224;24864;-73
2021/05/30 02:54:34;;;;;;;10.70;7.40;;;;;;;10.48;91.26;101152.97;636848;223;33003;-73
2021/05/30 02:57:02;;;;;;;10.57;7.83;;;;;;;10.42;91.00;101159.97;635678;225;23823;-74
2021/05/30 02:59:30;;;;;;;10.63;7.03;;;;;;;10.42;91.49;101159.14;628232;225;24902;-74
2021/05/30 03:01:58;;;;;;;9.07;7.43;;;;;;;10.48;91.73;101160.77;639395;221;24909;-74
2021/05/30 03:04:26;;;;;;;8.77;6.70;;;;;;;10.38;91.58;101165.03;635540;225;24934;-73
2021/05/30 03:06:54;;;;;;;9.20;7.10;;;;;;;10.33;91.63;101161.98;632302;225;24924;-74
2021/05/30 03:09:22;;;;;;;11.70;8.23;;;;;;;10.21;93.22;101165.50;634746;225;25124;-74
2021/05/30 03:11:50;;;;;;;9.17;7.33;;;;;;;10.19;92.78;101170.00;644302;221;24872;-74
2021/05/30 03:14:18;;;;;;;9.87;6.73;;;;;;;10.14;93.77;101174.73;645033;222;24948;-74
2021/05/30 03:16:46;;;;;;;12.33;8.55;;;;;;;10.26;93.06;101167.29;634870;220;32777;-74
2021/05/30 03:19:14;;;;;;;11.00;7.73;;;;;;;10.19;93.47;101170.83;641744;220;25851;-74
2021/05/30 03:21:42;;;;;;;9.73;8.07;;;;;;;10.18;92.98;101161.84;634404;225;24910;-73
2021/05/30 03:24:10;;;;;;;10.97;7.37;;;;;;;10.11;93.94;101177.91;628663;226;24925;-74
2021/05/30 03:26:38;;;;;;;9.20;7.87;;;;;;;10.06;94.05;101178.73;645791;221;24912;-74
2021/05/30 03:29:06;;;;;;;9.33;7.47;;;;;;;10.06;94.48;101180.04;642812;221;24904;-74
2021/05/30 03:31:34;;;;;;;10.77;9.20;;;;;;;10.10;94.47;101174.95;637078;223;24970;-74
2021/05/30 03:34:02;;;;;;;12.87;8.30;;;;;;;10.09;94.16;101175.90;641411;221;24916;-74
2021/05/30 03:36:31;;;;;;;12.80;8.10;;;;;;;10.04;93.71;101179.81;648515;221;25279;-74
2021/05/30 03:39:02;;;;;;;10.10;8.10;;;;;;;9.98;95.02;101183.69;642812;221;25560;-74
2021/05/30 03:41:33;;;;;;;12.35;8.98;;;;;;;10.06;93.97;101182.64;622757;225;32839;-73
2021/05/30 03:44:00;;;;;;;11.00;8.63;;;;;;;10.00;94.69;101181.82;648475;220;27031;-73
2021/05/30 03:46:28;;;;;;;12.63;8.73;;;;;;;9.96;94.77;101172.58;642011;220;24921;-73
2021/05/30 03:48:56;;;;;;;10.87;8.83;;;;;;;10.00;95.14;101171.42;647221;220;24896;-74
2021/05/30 03:51:24;;;;;;;11.10;8.53;;;;;;;10.07;94.80;101176.48;627633;225;27101;-74
2021/05/30 03:53:52;;;;;;;13.03;9.13;;;;;;;10.17;93.76;101179.22;628210;226;25964;-73
2021/05/30 03:56:20;;;;;;;14.77;9.10;;;;;;;10.30;93.21;101176.53;645469;220;24918;-74
2021/05/30 03:58:48;;;;;;;13.77;9.20;;;;;;;10.43;92.17;101166.82;651149;220;25147;-74
2021/05/30 04:01:16;;;;;;;13.27;8.93;;;;;;;10.58;92.35;101170.81;643152;221;24869;-74
2021/05/30 04:03:45;;;;;;;15.50;9.07;;;;;;;10.53;91.92;101171.63;643365;221;27039;-73
2021/05/30 04:06:11;;;;;;;10.97;8.60;;;;;;;10.55;91.56;101166.30;640600;221;24868;-73
2021/05/30 04:08:39;;;;;;;10.90;9.13;;;;;;;10.55;91.75;101174.11;642634;220;23928;-74
2021/05/30 04:11:07;;;;;;;15.37;9.97;;;;;;;10.76;90.88;101168.99;634380;222;32745;-74
2021/05/30 04:13:35;;;;;;;15.37;9.73;;;;;;;10.67;91.08;101171.84;647167;222;24920;-74
2021/05/30 04:16:03;;;;;;;14.27;9.70;;;;;;;10.76;91.33;101175.02;640831;222;24875;-74
2021/05/30 04:18:31;;;;;;;13.93;9.23;;;;;;;10.89;91.11;101174.39;639433;221;26140;-74
2021/05/30 04:20:59;;;;;;;13.90;10.10;;;;;;;11.09;90.30;101169.34;637038;222;32736;-73
2021/05/30 04:23:27;;;;;;;12.60;9.93;;;;;;;11.34;89.66;101174.67;644179;221;24871;-74
2021/05/30 04:25:56;;;;;;;10.70;9.20;;;;;;;11.42;88.83;101176.19;648174;220;23975;-74
2021/05/30 04:28:24;;;;;;;10.73;8.67;;;;;;;11.75;87.14;101166.84;628321;225;24913;-74
2021/05/30 04:30:52;;;;;;;14.13;9.40;;;;;;;11.79;87.39;101172.66;643916;221;24864;-74
2021/05/30 04:33:20;;;;;;;11.30;8.33;;;;;;;11.94;86.26;101158.80;639909;221;24970;-74
2021/05/30 04:35:48;;;;;;;13.77;9.77;;;;;;;12.12;85.39;101169.80;636703;225;23975;-73
2021/05/30 04:38:17;;;;;;;12.30;9.27;;;;;;;12.35;84.99;101166.50;639335;221;25202;-74
2021/05/30 04:40:44;;;;;;;13.68;9.35;;;;;;;12.44;84.27;101170.93;638102;220;33098;-74
2021/05/30 04:43:12;;;;;;;19.30;9.67;;;;;;;12.12;85.12;101171.59;627534;225;24122;-74
2021/05/30 04:45:40;;;;;;;14.17;10.17;;;;;;;12.01;86.00;101176.89;645149;221;33042;-74
2021/05/30 04:48:09;;;;;;;13.77;10.50;;;;;;;11.80;86.76;101179.03;647224;221;25972;-74
2021/05/30 04:50:38;;;;;;;14.43;9.40;;;;;;;12.07;86.31;101181.56;627338;225;24974;-74
2021/05/30 04:53:05;;;;;;;12.60;9.30;;;;;;;12.20;85.36;101169.13;636067;224;24922;-74
2021/05/30 04:55:32;;;;;;;12.10;8.77;;;;;;;12.09;86.75;101172.66;629584;224;24930;-74
2021/05/30 04:58:02;;;;;;;11.50;8.97;;;;;;;12.17;86.76;101171.53;637434;225;28115;-73
2021/05/30 05:00:28;;;;;;;14.17;9.00;;;;;;;12.42;84.82;101172.85;647693;221;26098;-74
2021/05/30 05:02:56;;;;;;;12.40;9.80;;;;;;;12.39;83.90;101167.91;633579;225;32973;-74
2021/05/30 05:05:24;;;;;;;14.07;10.93;;;;;;;12.36;84.76;101175.97;633933;225;24974;-74
2021/05/30 05:07:52;;;;;;;12.33;10.03;;;;;;;12.66;84.89;101163.81;634510;220;32960;-76
2021/05/30 05:10:20;;;;;;;12.63;9.80;;;;;;;12.83;83.12;101168.87;640449;220;24875;-74
2021/05/30 05:12:48;;;;;;;12.70;9.23;;;;;;;12.65;84.45;101166.91;641020;224;25090;-74
2021/05/30 05:15:16;;;;;;;14.90;9.97;;;;;;;12.53;85.05;101165.85;641094;223;23909;-74
2021/05/30 05:17:44;;;;;;;13.77;9.77;;;;;;;12.68;83.90;101165.84;623096;225;32875;-73
2021/05/30 05:20:13;;;;;;;12.63;10.00;;;;;;;12.84;83.46;101166.13;623069;224;33414;-74
2021/05/30 05:22:41;;;;;;;12.78;9.68;;;;;;;12.67;83.75;101166.32;643067;221;32849;-74
2021/05/30 05:25:11;;;;;;;12.95;9.43;;;;;;;12.97;82.58;101170.61;643894;220;32750;-74
2021/05/30 05:27:39;;;;;;;13.40;8.93;;;;;;;12.91;83.09;101168.52;645301;221;23787;-74
2021/05/30 05:30:09;;;;;;;14.00;9.40;;;;;;;13.30;82.21;101172.47;623675;224;34419;-73
2021/05/30 05:32:36;;;;;;;13.10;9.00;;;;;;;13.19;81.53;101168.21;636975;221;32911;-73
2021/05/30 05:35:05;;;;;;;13.77;9.23;;;;;;;13.16;83.14;101165.85;641792;222;23740;-73
2021/05/30 05:37:33;;;;;;;11.63;9.20;;;;;;;13.29;81.88;101162.50;632052;225;33101;-73
2021/05/30 05:40:01;;;;;;;12.50;9.30;;;;;;;13.19;82.66;101168.69;641423;223;23712;-74
2021/05/30 05:42:30;;;;;;;12.63;8.40;;;;;;;13.42;80.47;101150.45;635348;221;33262;-74
2021/05/30 05:44:58;;;;;;;11.40;8.47;;;;;;;13.38;81.28;101160.86;643858;221;24899;-74
2021/05/30 05:47:26;;;;;;;11.70;8.30;;;;;;;13.18;81.70;101163.09;643147;221;24867;-74
2021/05/30 05:49:54;;;;;;;9.33;8.17;;;;;;;13.27;81.04;101163.13;638006;221;24874;-74
2021/05/30 05:52:22;;;;;;;13.43;8.07;;;;;;;13.42;80.34;101164.83;640101;221;26050;-74
2021/05/30 05:54:50;;;;;;;11.90;8.40;;;;;;;13.54;80.59;101168.94;640722;221;24875;-74
2021/05/30 05:57:18;;;;;;;11.85;8.90;;;;;;;13.82;81.31;101170.31;636040;221;32725;-74
2021/05/30 05:59:46;;;;;;;9.40;8.40;;;;;;;14.03;80.54;101164.38;626768;225;23760;-74
2021/05/30 06:02:14;;;;;;;8.90;7.63;;;;;;;14.20;78.96;101152.31;644844;221;24893;-74
2021/05/30 06:04:44;;;;;;;9.70;7.03;;;;;;;14.00;77.17;101152.90;644388;220;28054;-74
2021/05/30 06:07:12;;;;;;;9.87;6.90;;;;;;;14.16;78.77;101162.73;638132;224;24899;-74
2021/05/30 06:09:39;;;;;;;11.13;7.30;;;;;;;14.15;78.39;101162.40;644295;221;24916;-73
2021/05/30 06:12:09;;;;;;;10.77;6.63;;;;;;;14.30;77.14;101160.13;645966;220;24864;-74
2021/05/30 06:14:37;;;;;;;8.10;6.57;;;;;;;14.62;77.05;101157.88;631505;225;24926;-74
2021/05/30 06:17:05;;;;;;;7.17;6.47;;;;;;;14.72;75.78;101164.38;647319;221;24881;-74
2021/05/30 06:19:33;;;;;;;9.20;6.57;;;;;;;14.42;76.30;101158.95;647766;220;24929;-74
2021/05/30 06:22:01;;;;;;;9.48;7.12;;;;;;;14.45;76.46;101162.62;629613;225;43650;-74
2021/05/30 06:24:29;;;;;;;8.20;6.50;;;;;;;15.02;76.22;101166.63;639228;221;38816;-73
2021/05/30 06:26:57;;;;;;;7.17;6.27;;;;;;;14.90;75.40;101168.30;648782;221;22762;-74
2021/05/30 06:29:25;;;;;;;9.83;6.97;;;;;;;14.98;74.98;101166.59;651290;219;24189;-75
2021/05/30 06:31:55;;;;;;;10.43;6.60;;;;;;;15.26;75.42;101172.56;645345;220;25206;-72
2021/05/30 06:34:22;;;;;;;8.83;5.70;;;;;;;15.15;74.60;101163.63;635015;223;23916;-73
2021/05/30 06:36:52;;;;;;;6.90;5.97;;;;;;;15.24;74.87;101165.34;636527;225;23918;-74
2021/05/30 06:39:18;;;;;;;6.67;5.10;;;;;;;15.02;74.18;101167.11;643711;221;24907;-74
2021/05/30 06:41:46;;;;;;;7.73;5.87;;;;;;;14.95;74.45;101170.02;630640;226;24930;-74
2021/05/30 06:44:14;;;;;;;7.22;5.90;;;;;;;14.97;74.96;101170.68;633979;224;32693;-74
2021/05/30 06:46:42;;;;;;;7.53;5.70;;;;;;;15.01;75.73;101171.53;626457;225;22793;-74
2021/05/30 06:49:10;;;;;;;7.27;5.40;;;;;;;15.52;74.35;101174.40;644718;221;23882;-74
2021/05/30 06:51:38;;;;;;;7.03;6.33;;;;;;;15.41;74.60;101172.34;647387;221;24930;-74
2021/05/30 06:54:06;;;;;;;8.83;6.33;;;;;;;15.51;73.34;101166.20;627125;226;32779;-73
2021/05/30 06:56:34;;;;;;;8.30;6.30;;;;;;;15.49;73.16;101162.91;639453;222;22769;-74
2021/05/30 06:59:02;;;;;;;7.50;5.70;;;;;;;15.50;73.14;101160.62;631191;224;28142;-74
2021/05/30 07:01:30;;;;;;;6.17;5.23;;;;;;;15.69;73.10;101157.81;631966;225;23993;-74
2021/05/30 07:03:58;;;;;;;7.17;4.80;;;;;;;16.00;70.70;101152.40;644328;221;27156;-74
2021/05/30 07:06:26;;;;;;;7.07;5.80;;;;;;;16.37;72.28;101156.98;638618;220;23939;-74
2021/05/30 07:08:54;;;;;;;7.53;5.13;;;;;;;16.47;71.29;101149.30;640374;224;23899;-74
2021/05/30 07:11:23;;;;;;;5.20;4.20;;;;;;;16.49;69.00;101144.71;641014;223;23907;-74
2021/05/30 07:13:51;;;;;;;6.57;4.83;;;;;;;16.11;70.73;101145.23;648466;221;23887;-74
2021/05/30 07:16:21;;;;;;;7.00;4.77;;;;;;;16.27;70.82;101158.41;643360;220;23892;-74
2021/05/30 07:18:49;;;;;;;8.30;4.90;;;;;;;16.37;69.09;101159.11;640015;220;32666;-74
2021/05/30 07:21:17;;;;;;;5.27;4.60;;;;;;;16.67;70.33;101151.17;651491;220;23930;-74
2021/05/30 07:23:45;;;;;;;5.70;4.17;;;;;;;16.84;67.75;101141.50;646635;221;23902;-74
2021/05/30 07:26:14;;;;;;;5.30;3.77;;;;;;;17.06;66.68;101138.23;633293;225;24946;-75
2021/05/30 07:28:44;;;;;;;7.90;4.30;;;;;;;16.89;66.07;101137.88;629786;225;23922;-74
2021/05/30 07:31:09;;;;;;;4.13;3.70;;;;;;;17.15;68.66;101135.09;630624;225;23928;-74
2021/05/30 07:33:38;;;;;;;5.60;3.57;;;;;;;17.04;66.31;101129.70;644940;220;23917;-76
2021/05/30 07:36:07;;;;;;;3.47;3.27;;;;;;;16.72;66.38;101134.42;638658;220;29112;-74
2021/05/30 07:38:35;;;;;;;8.20;3.70;;;;;;;17.05;67.43;101137.91;635099;225;23930;-74
2021/05/30 07:41:03;;;;;;;5.00;3.57;;;;;;;17.02;66.59;101136.90;628747;225;23919;-74
2021/05/30 07:43:33;;;;;;;3.60;3.30;;;;;;;17.09;64.53;101134.45;638147;225;23876;-74
2021/05/30 07:46:01;;;;;;;4.80;3.47;;;;;;;17.13;64.72;101133.95;635445;225;23972;-74
2021/05/30 07:48:29;;;;;;;5.13;3.63;;;;;;;17.30;64.81;101136.06;645172;220;23948;-75
2021/05/30 07:50:57;;;;;;;4.43;3.80;;;;;;;17.76;64.17;101131.91;646995;220;23901;-74
2021/05/30 07:53:25;;;;;;;3.97;3.67;;;;;;;17.79;65.88;101132.06;627758;226;23956;-74
2021/05/30 07:55:53;;;;;;;4.60;3.60;;;;;;;17.85;65.22;101142.39;628660;225;24913;-74
2021/05/30 07:58:21;;;;;;;3.83;3.53;;;;;;;17.62;63.88;101129.95;643538;221;23923;-74
2021/05/30 08:00:49;;;;;;;6.37;4.00;;;;;;;17.70;63.54;101131.25;633849;225;23962;-74
2021/05/30 08:03:17;;;;;;;6.10;3.30;;;;;;;17.62;63.92;101126.50;645014;221;24242;-74
2021/05/30 08:05:45;;;;;;;3.80;3.50;;;;;;;17.57;63.32;101125.66;642899;221;32788;-73
2021/05/30 08:08:13;;;;;;;4.07;3.67;;;;;;;17.78;64.76;101124.66;638596;224;22757;-74
2021/05/30 08:10:41;;;;;;;6.00;4.37;;;;;;;17.90;64.37;101128.25;641991;223;23943;-74
2021/05/30 08:13:09;;;;;;;4.97;3.90;;;;;;;17.62;64.59;101127.81;631221;225;23912;-74
2021/05/30 08:15:37;;;;;;;4.70;3.93;;;;;;;17.82;66.60;101137.48;627334;225;23973;-74
2021/05/30 08:18:05;;;;;;;4.73;3.23;;;;;;;18.32;64.67;101137.93;641736;221;23886;-74
2021/05/30 08:20:33;;;;;;;5.25;4.10;;;;;;;18.74;63.55;101135.40;630879;225;32863;-74
2021/05/30 08:23:01;;;;;;;6.17;3.50;;;;;;;18.33;62.27;101132.16;642225;221;22755;-74
2021/05/30 08:25:29;;;;;;;5.20;3.20;;;;;;;18.01;62.79;101119.95;645805;221;23920;-74
2021/05/30 08:27:57;;;;;;;3.80;3.40;;;;;;;18.34;62.11;101131.17;645024;219;24177;-74
2021/05/30 08:30:26;;;;;;;4.53;3.20;;;;;;;18.14;61.88;101133.39;629991;225;24978;-74
2021/05/30 08:32:54;;;;;;;4.70;3.30;;;;;;;18.56;61.93;101121.14;632284;225;24090;-74
2021/05/30 08:35:22;;;;;;;8.23;3.47;;;;;;;18.96;59.55;101115.28;645752;221;24885;-75
2021/05/30 08:37:50;;;;;;;5.30;3.50;;;;;;;19.72;59.92;101121.34;636682;225;23942;-74
2021/05/30 08:40:18;;;;;;;22.60;6.10;;;;;;;19.10;61.11;101125.55;647713;220;23943;-74
2021/05/30 08:42:46;;;;;;;6.40;3.80;;;;;;;19.32;58.35;101110.69;637006;221;33255;-74
2021/05/30 08:45:15;;;;;;;4.50;3.53;;;;;;;19.55;60.86;101108.30;628233;225;23941;-74
2021/05/30 08:47:43;;;;;;;4.80;3.17;;;;;;;19.72;58.19;101115.56;639921;221;33393;-74
2021/05/30 08:50:12;;;;;;;4.80;3.00;;;;;;;19.45;57.05;101103.78;641357;221;24310;-73
2021/05/30 08:52:40;;;;;;;3.23;3.00;;;;;;;19.35;59.13;101104.54;648433;221;23894;-74
2021/05/30 08:55:09;;;;;;;3.93;2.93;;;;;;;19.02;57.62;101105.36;641523;224;23919;-74
2021/05/30 08:57:37;;;;;;;5.20;3.07;;;;;;;18.66;60.79;101102.50;640065;223;23997;-74
2021/05/30 09:00:07;;;;;;;4.67;2.97;;;;;;;19.02;59.36;101106.67;641083;221;23944;-74
2021/05/30 09:02:36;;;;;;;5.20;3.40;;;;;;;18.86;59.64;101104.15;646745;221;23889;-74
2021/05/30 09:05:04;;;;;;;2.60;2.40;;;;;;;18.69;58.91;101108.23;636967;225;26079;-74
2021/05/30 09:07:38;;;;;;;4.43;2.90;;;;;;;18.99;57.29;101103.05;646230;221;23914;-74
2021/05/30 09:10:07;;;;;;;3.20;2.80;;;;;;;19.71;56.15;101092.81;644294;221;24896;-74
2021/05/30 09:12:37;;;;;;;4.57;3.20;;;;;;;19.81;57.92;101103.88;636527;225;23961;-74
2021/05/30 09:15:10;;;;;;;2.90;2.60;;;;;;;19.45;56.21;101098.50;649222;221;23901;-74
2021/05/30 09:17:36;;;;;;;4.03;2.83;;;;;;;19.85;58.33;101097.76;630856;225;23954;-74
2021/05/30 09:20:05;;;;;;;3.20;2.90;;;;;;;20.27;55.49;101082.50;640651;221;31417;-74
2021/05/30 09:22:36;;;;;;;2.67;2.33;;;;;;;20.56;53.48;101077.64;628203;225;27090;-74
2021/05/30 09:25:10;;;;;;;3.20;2.90;;;;;;;21.19;52.96;101072.44;628346;226;23923;-72
2021/05/30 09:27:38;;;;;;;3.07;2.77;;;;;;;21.88;52.41;101066.61;643283;221;23950;-73
2021/05/30 09:30:11;;;;;;;3.40;2.60;;;;;;;22.03;52.84;101071.76;630852;225;23938;-72
2021/05/30 09:32:50;;;;;;;4.37;3.17;;;;;;;21.62;52.71;101069.14;645464;221;23969;-72
2021/05/30 09:35:18;;;;;;;4.37;3.10;;;;;;;21.22;53.51;101068.07;636855;221;32863;-73
2021/05/30 09:37:46;;;;;;;3.70;3.00;;;;;;;20.93;56.03;101082.31;638622;221;22803;-73
2021/05/30 09:40:15;;;;;;;5.73;3.50;;;;;;;20.36;56.86;101076.08;633445;221;25185;-73
2021/05/30 09:42:44;;;;;;;4.50;2.90;;;;;;;20.77;54.56;101074.66;623963;225;32831;-73
2021/05/30 09:45:14;;;;;;;4.00;2.93;;;;;;;20.59;58.05;101077.76;636806;225;22738;-73
2021/05/30 09:47:44;;;;;;;2.97;2.63;;;;;;;20.59;50.51;101065.36;628292;225;23900;-73
2021/05/30 09:50:10;;;;;;;3.93;2.60;;;;;;;21.17;53.54;101059.40;646497;220;23911;-74
2021/05/30 09:52:38;;;;;;;2.77;2.20;;;;;;;20.86;53.00;101063.77;631285;225;23932;-73
2021/05/30 09:55:13;;;;;;;3.12;2.50;;;;;;;21.51;50.37;101055.13;639389;220;32682;-73
2021/05/30 09:57:41;;;;;;;4.07;2.73;;;;;;;21.94;52.37;101049.91;651791;220;22765;-73
2021/05/30 10:00:14;;;;;;;4.50;2.50;;;;;;;22.35;50.77;101041.58;646982;219;23949;-73
2021/05/30 10:02:42;;;;;;;4.10;2.80;;;;;;;21.77;49.42;101034.58;634675;225;23967;-73
2021/05/30 10:05:11;;;;;;;4.53;2.80;;;;;;;21.43;52.52;101047.37;644234;221;27031;-74
2021/05/30 10:07:39;;;;;;;4.07;3.00;;;;;;;20.87;50.61;101043.42;643317;221;27053;-73
2021/05/30 10:10:08;;;;;;;3.67;2.60;;;;;;;20.63;51.92;101046.78;631620;225;23968;-73
2021/05/30 10:12:36;;;;;;;3.20;2.67;;;;;;;19.51;53.01;101052.91;640312;221;23936;-73
2021/05/30 10:15:05;;;;;;;4.00;2.77;;;;;;;20.21;51.29;101050.72;644120;222;24232;-73
2021/05/30 10:17:33;;;;;;;4.57;3.00;;;;;;;20.61;50.99;101049.30;643391;220;23890;-73
2021/05/30 10:20:01;;;;;;;3.50;2.40;;;;;;;20.57;50.59;101031.70;627312;225;23989;-73
2021/05/30 10:22:29;;;;;;;2.70;2.50;;;;;;;21.46;51.71;101037.20;645658;221;23899;-73
2021/05/30 10:24:57;;;;;;;4.13;3.03;;;;;;;21.85;51.72;101039.20;649905;221;23894;-73
2021/05/30 10:27:27;;;;;;;2.50;2.23;;;;;;;22.27;46.68;101021.41;640291;220;23983;-73
2021/05/30 10:30:13;;;;;;;2.42;2.05;;;;;;;21.86;49.01;101018.32;629234;224;32858;-73
2021/05/30 10:32:41;;;;;;;2.80;2.07;;;;;;;21.52;46.10;101013.90;644278;221;23083;-73
2021/05/30 10:35:10;;;;;;;2.60;1.97;;;;;;;22.16;44.83;101000.28;647226;222;23897;-73
2021/05/30 10:37:42;;;;;;;4.00;2.30;;;;;;;22.34;45.08;100998.86;629653;225;32906;-74
2021/05/30 10:40:33;;;;;;;4.23;2.50;;;;;;;22.13;46.99;100994.06;649661;221;22778;-73
2021/05/30 10:43:13;;;;;;;3.17;2.17;;;;;;;21.84;48.08;101005.79;632267;225;23955;-73
2021/05/30 10:45:58;;;;;;;1.90;1.70;;;;;;;21.30;47.86;100993.36;631256;225;23930;-74
2021/05/30 10:48:26;;;;;;;2.00;1.67;;;;;;;21.73;48.11;101001.57;638880;221;23935;-73
2021/05/30 10:51:03;;;;;;;2.33;1.70;;;;;;;22.18;44.67;101000.08;650384;221;23981;-73
2021/05/30 10:53:31;;;;;;;5.20;2.00;;;;;;;21.75;45.64;100991.08;651404;220;23929;-73
2021/05/30 10:56:16;;;;;;;2.10;1.77;;;;;;;21.78;47.18;100985.38;643261;220;24187;-73
2021/05/30 10:58:44;;;;;;;2.03;1.93;;;;;;;22.64;44.76;100978.05;639252;224;23895;-73
2021/05/30 11:01:39;;;;;;;4.87;2.23;;;;;;;22.49;44.96;100984.38;630478;225;24029;-74
2021/05/30 11:04:29;;;;;;;2.10;1.90;;;;;;;22.10;46.54;100976.41;629761;225;24028;-73
2021/05/30 11:06:57;;;;;;;3.20;2.23;;;;;;;22.27;47.88;100980.31;644640;222;23876;-74
2021/05/30 11:09:25;;;;;;;2.77;2.10;;;;;;;22.90;43.83;100982.55;629420;226;28111;-74
2021/05/30 11:12:17;;;;;;;2.53;1.80;;;;;;;21.63;46.33;100980.75;627620;225;23948;-73
2021/05/30 11:15:19;;;;;;;2.20;2.00;;;;;;;21.88;47.24;100982.36;644738;221;23882;-73
2021/05/30 11:17:46;;;;;;;2.13;2.00;;;;;;;20.97;46.42;100975.11;637986;224;23892;-73
2021/05/30 11:20:15;;;;;;;3.27;2.00;;;;;;;20.99;48.66;100983.69;640096;224;23898;-73
2021/05/30 11:22:43;;;;;;;2.67;2.10;;;;;;;21.30;46.20;100976.66;651604;220;23889;-73
2021/05/30 11:25:11;;;;;;;5.37;2.40;;;;;;;21.63;46.50;100968.84;642449;221;23936;-73
2021/05/30 11:27:48;;;;;;;2.33;2.13;;;;;;;22.05;46.13;100978.82;639015;221;23924;-73
2021/05/30 11:30:38;;;;;;;3.73;2.30;;;;;;;22.09;50.14;100988.84;628338;225;23938;-73